createdAt,value
2019-01-25T00:00:59.990Z,96004.91
2019-01-25T00:02:03.280Z,96004.11
2019-01-25T00:03:10.215Z,95997.95
2019-01-25T00:04:22.231Z,96003.31
2019-01-25T00:05:43.309Z,96004.95
2019-01-25T00:07:01.088Z,96007.16
2019-01-25T00:09:42.854Z,96016.59
2019-01-25T00:10:55.473Z,96021.50
2019-01-25T00:12:09.374Z,96022.31
2019-01-25T00:13:20.873Z,96025.14
2019-01-25T00:14:32.754Z,96024.22
2019-01-25T00:17:30.157Z,96017.72
2019-01-25T00:18:32.168Z,96004.09
2019-01-25T00:19:37.036Z,95992.34
2019-01-25T00:20:40.323Z,95990.02
2019-01-25T00:21:43.608Z,95988.14
2019-01-25T00:22:46.890Z,95990.09
2019-01-25T00:23:50.269Z,95993.77
2019-01-25T00:24:54.005Z,95994.01
2019-01-25T00:25:57.257Z,95994.14
2019-01-25T00:27:00.541Z,95998.20
2019-01-25T00:28:03.820Z,95997.14
2019-01-25T00:29:07.148Z,95995.52
2019-01-25T00:30:15.507Z,95995.14
2019-01-25T00:31:18.798Z,95995.38
2019-01-25T00:32:22.085Z,95988.53
2019-01-25T00:33:25.374Z,95985.12
2019-01-25T00:34:28.691Z,95989.88
2019-01-25T00:35:31.973Z,95989.71
2019-01-25T00:36:35.256Z,95990.47
2019-01-25T00:37:38.604Z,95989.04
2019-01-25T00:38:41.963Z,95992.06
2019-01-25T00:39:45.278Z,95990.94
2019-01-25T00:40:48.851Z,95989.98
2019-01-25T00:41:52.486Z,95985.48
2019-01-25T00:42:55.774Z,95987.84
2019-01-25T00:43:59.063Z,95992.06
2019-01-25T00:45:02.457Z,95997.00
2019-01-25T00:46:05.744Z,95997.66
2019-01-25T00:47:09.037Z,95998.44
2019-01-25T00:48:12.392Z,96002.25
2019-01-25T00:49:15.682Z,96006.23
2019-01-25T00:50:20.648Z,96004.87
2019-01-25T00:51:23.952Z,96003.23
2019-01-25T00:52:27.309Z,95998.46
2019-01-25T00:53:30.602Z,95991.47
2019-01-25T00:54:33.884Z,95990.92
2019-01-25T00:55:37.623Z,95993.63
2019-01-25T00:56:40.908Z,95993.16
2019-01-25T00:57:44.204Z,95992.20
2019-01-25T00:58:47.487Z,96003.75
2019-01-25T00:59:50.784Z,96005.95
2019-01-25T01:00:54.100Z,96007.69
2019-01-25T01:01:57.396Z,96019.80
2019-01-25T01:03:00.691Z,96027.44
2019-01-25T01:04:04.048Z,96040.81
2019-01-25T01:05:07.428Z,96035.66
2019-01-25T01:06:10.821Z,96034.02
2019-01-25T01:07:14.171Z,96024.56
2019-01-25T01:08:17.538Z,96019.09
2019-01-25T01:09:20.830Z,96020.66
2019-01-25T01:10:24.128Z,96012.85
2019-01-25T01:11:27.536Z,96000.42
2019-01-25T01:12:30.820Z,96007.00
2019-01-25T01:13:34.117Z,96003.32
2019-01-25T01:14:37.395Z,96001.75
2019-01-25T01:15:40.682Z,96002.92
2019-01-25T01:16:44.014Z,96008.94
2019-01-25T01:17:47.317Z,96001.97
2019-01-25T01:18:50.604Z,95996.11
2019-01-25T01:19:53.876Z,95989.31
2019-01-25T01:20:57.168Z,95991.45
2019-01-25T01:22:00.579Z,95989.50
2019-01-25T01:23:03.878Z,95988.57
2019-01-25T01:24:07.171Z,95991.94
2019-01-25T01:25:11.274Z,95998.03
2019-01-25T01:26:14.575Z,96001.13
2019-01-25T01:27:17.880Z,96006.38
2019-01-25T01:28:21.572Z,96014.98
2019-01-25T01:29:24.848Z,96024.03
2019-01-25T01:30:28.144Z,96021.30
2019-01-25T01:31:31.437Z,96023.71
2019-01-25T01:32:35.077Z,96015.75
2019-01-25T01:33:38.361Z,96009.11
2019-01-25T01:34:41.662Z,96003.80
2019-01-25T01:35:44.936Z,96001.61
2019-01-25T01:36:48.212Z,95995.83
2019-01-25T01:37:52.684Z,95994.78
2019-01-25T01:38:55.970Z,95995.50
2019-01-25T01:39:59.338Z,95990.50
2019-01-25T01:41:02.629Z,95987.53
2019-01-25T01:42:05.913Z,95991.34
2019-01-25T01:43:09.328Z,95987.98
2019-01-25T01:44:12.612Z,95986.20
2019-01-25T01:45:15.984Z,95966.63
2019-01-25T01:46:19.343Z,95961.00
2019-01-25T01:47:22.638Z,95960.55
2019-01-25T01:48:25.956Z,95966.33
2019-01-25T01:49:29.254Z,95969.30
2019-01-25T01:50:32.532Z,95964.06
2019-01-25T01:51:35.816Z,95966.03
2019-01-25T01:52:39.109Z,95970.39
2019-01-25T01:53:42.434Z,95972.23
2019-01-25T01:54:45.728Z,95971.22
2019-01-25T01:55:49.017Z,95964.80
2019-01-25T01:56:52.302Z,95958.59
2019-01-25T01:57:55.593Z,95958.91
2019-01-25T01:58:58.905Z,95959.14
2019-01-25T02:00:02.200Z,95963.98
2019-01-25T02:01:05.479Z,95958.42
2019-01-25T02:02:09.095Z,95950.36
2019-01-25T02:03:12.392Z,95941.47
2019-01-25T02:04:15.727Z,95936.77
2019-01-25T02:05:19.003Z,95930.23
2019-01-25T02:06:22.291Z,95928.77
2019-01-25T02:07:25.923Z,95928.91
2019-01-25T02:08:29.209Z,95928.22
2019-01-25T02:09:32.540Z,95920.49
2019-01-25T02:10:35.988Z,95924.73
2019-01-25T02:11:39.272Z,95917.63
2019-01-25T02:12:42.556Z,95922.72
2019-01-25T02:13:45.907Z,95923.59
2019-01-25T02:14:49.221Z,95911.23
2019-01-25T02:15:52.508Z,95900.98
2019-01-25T02:16:55.800Z,95900.86
2019-01-25T02:17:59.445Z,95902.15
2019-01-25T02:19:02.734Z,95908.24
2019-01-25T02:20:09.321Z,95909.34
2019-01-25T02:21:13.381Z,95915.77
2019-01-25T02:22:16.670Z,95914.60
2019-01-25T02:23:19.962Z,95923.02
2019-01-25T02:24:23.583Z,95926.31
2019-01-25T02:25:27.379Z,95927.17
2019-01-25T02:26:30.775Z,95920.08
2019-01-25T02:27:34.068Z,95912.91
2019-01-25T02:28:37.356Z,95904.23
2019-01-25T02:29:40.640Z,95903.93
2019-01-25T02:30:44.037Z,95898.94
2019-01-25T02:31:47.432Z,95908.74
2019-01-25T02:32:50.781Z,95903.41
2019-01-25T02:33:54.076Z,95903.10
2019-01-25T02:34:57.359Z,95897.89
2019-01-25T02:36:00.692Z,95892.82
2019-01-25T02:37:03.985Z,95894.62
2019-01-25T02:38:07.271Z,95895.02
2019-01-25T02:39:10.567Z,95901.20
2019-01-25T02:40:22.501Z,95895.89
2019-01-25T02:41:25.805Z,95898.64
2019-01-25T02:42:29.097Z,95897.54
2019-01-25T02:43:32.425Z,95889.44
2019-01-25T02:44:35.708Z,95892.80
2019-01-25T02:45:39.003Z,95894.73
2019-01-25T02:46:42.317Z,95898.02
2019-01-25T02:47:45.605Z,95899.42
2019-01-25T02:48:48.894Z,95900.80
2019-01-25T02:49:52.184Z,95905.09
2019-01-25T02:50:55.467Z,95904.61
2019-01-25T02:51:58.795Z,95907.89
2019-01-25T02:53:03.838Z,95903.44
2019-01-25T02:54:07.096Z,95907.41
2019-01-25T02:55:11.733Z,95907.89
2019-01-25T02:56:15.029Z,95896.05
2019-01-25T02:57:18.342Z,95891.05
2019-01-25T02:58:21.669Z,95888.48
2019-01-25T02:59:24.988Z,95885.37
2019-01-25T03:00:28.276Z,95892.01
2019-01-25T03:01:31.556Z,95894.56
2019-01-25T03:02:34.946Z,95894.56
2019-01-25T03:03:38.247Z,95902.77
2019-01-25T03:04:41.526Z,95896.45
2019-01-25T03:05:44.816Z,95896.84
2019-01-25T03:06:48.122Z,95903.09
2019-01-25T03:07:51.625Z,95910.19
2019-01-25T03:08:54.915Z,95908.85
2019-01-25T03:09:58.207Z,95900.63
2019-01-25T03:11:01.490Z,95895.64
2019-01-25T03:12:05.068Z,95893.30
2019-01-25T03:13:08.418Z,95888.72
2019-01-25T03:14:11.698Z,95878.89
2019-01-25T03:15:19.892Z,95882.42
2019-01-25T03:16:23.245Z,95879.77
2019-01-25T03:17:26.556Z,95885.31
2019-01-25T03:18:29.913Z,95886.40
2019-01-25T03:19:33.543Z,95890.63
2019-01-25T03:20:36.833Z,95880.77
2019-01-25T03:21:40.125Z,95888.17
2019-01-25T03:22:43.455Z,95887.41
2019-01-25T03:23:46.732Z,95879.61
2019-01-25T03:24:50.024Z,95875.19
2019-01-25T03:25:53.316Z,95868.78
2019-01-25T03:26:56.607Z,95874.86
2019-01-25T03:27:59.997Z,95874.53
2019-01-25T03:29:03.344Z,95878.35
2019-01-25T03:30:10.305Z,95871.73
2019-01-25T03:31:13.574Z,95875.85
2019-01-25T03:32:17.051Z,95875.55
2019-01-25T03:33:20.349Z,95871.94
2019-01-25T03:34:23.696Z,95872.58
2019-01-25T03:35:27.060Z,95873.98
2019-01-25T03:36:30.343Z,95867.96
2019-01-25T03:37:33.625Z,95869.53
2019-01-25T03:38:36.953Z,95874.29
2019-01-25T03:39:40.311Z,95871.02
2019-01-25T03:40:43.604Z,95880.06
2019-01-25T03:41:46.892Z,95873.83
2019-01-25T03:42:50.187Z,95871.41
2019-01-25T03:43:53.500Z,95873.22
2019-01-25T03:44:56.797Z,95865.27
2019-01-25T03:46:00.587Z,95861.50
2019-01-25T03:47:03.875Z,95846.75
2019-01-25T03:48:08.243Z,95846.58
2019-01-25T03:49:12.401Z,95843.83
2019-01-25T03:50:27.323Z,95837.84
2019-01-25T03:51:30.601Z,95829.09
2019-01-25T03:52:33.894Z,95824.41
2019-01-25T03:53:37.182Z,95819.95
2019-01-25T03:54:40.496Z,95824.71
2019-01-25T03:55:43.780Z,95821.07
2019-01-25T03:56:47.988Z,95815.53
2019-01-25T03:57:51.411Z,95816.71
2019-01-25T03:58:54.707Z,95811.81
2019-01-25T03:59:58.033Z,95800.11
2019-01-25T04:01:01.321Z,95807.91
2019-01-25T04:02:04.612Z,95809.84
2019-01-25T04:03:07.895Z,95811.41
2019-01-25T04:04:11.179Z,95809.75
2019-01-25T04:05:15.759Z,95816.34
2019-01-25T04:06:19.195Z,95812.36
2019-01-25T04:07:22.844Z,95812.62
2019-01-25T04:08:26.137Z,95812.19
2019-01-25T04:09:29.428Z,95813.75
2019-01-25T04:10:32.759Z,95813.58
2019-01-25T04:11:36.059Z,95813.81
2019-01-25T04:12:39.418Z,95807.73
2019-01-25T04:13:43.021Z,95808.76
2019-01-25T04:14:46.308Z,95809.23
2019-01-25T04:15:49.637Z,95813.05
2019-01-25T04:16:52.918Z,95814.58
2019-01-25T04:17:56.210Z,95813.42
2019-01-25T04:18:59.494Z,95814.93
2019-01-25T04:20:02.790Z,95816.84
2019-01-25T04:21:06.108Z,95818.55
2019-01-25T04:22:09.437Z,95820.66
2019-01-25T04:23:12.728Z,95822.33
2019-01-25T04:24:16.369Z,95828.55
2019-01-25T04:25:21.405Z,95839.54
2019-01-25T04:26:24.734Z,95845.32
2019-01-25T04:27:28.017Z,95844.60
2019-01-25T04:28:31.300Z,95844.81
2019-01-25T04:29:35.017Z,95844.06
2019-01-25T04:30:38.265Z,95855.55
2019-01-25T04:31:41.691Z,95845.66
2019-01-25T04:32:45.034Z,95837.48
2019-01-25T04:33:48.327Z,95832.44
2019-01-25T04:34:51.642Z,95835.91
2019-01-25T04:35:54.934Z,95839.59
2019-01-25T04:36:58.268Z,95835.30
2019-01-25T04:38:01.925Z,95835.99
2019-01-25T04:39:07.862Z,95838.72
2019-01-25T04:40:13.680Z,95840.12
2019-01-25T04:41:16.975Z,95848.14
2019-01-25T04:42:20.295Z,95849.78
2019-01-25T04:43:23.589Z,95851.79
2019-01-25T04:44:26.868Z,95846.89
2019-01-25T04:45:30.154Z,95844.64
2019-01-25T04:46:34.403Z,95856.41
2019-01-25T04:47:37.727Z,95860.25
2019-01-25T04:48:41.455Z,95855.41
2019-01-25T04:49:44.737Z,95855.95
2019-01-25T04:50:48.027Z,95851.22
2019-01-25T04:51:51.315Z,95848.73
2019-01-25T04:52:54.711Z,95842.88
2019-01-25T04:53:58.015Z,95837.95
2019-01-25T04:55:04.946Z,95830.31
2019-01-25T04:56:08.296Z,95828.98
2019-01-25T04:57:11.658Z,95832.02
2019-01-25T04:58:15.556Z,95824.59
2019-01-25T04:59:18.847Z,95823.58
2019-01-25T05:00:23.842Z,95819.88
2019-01-25T05:01:28.052Z,95815.90
2019-01-25T05:02:31.337Z,95826.58
2019-01-25T05:03:34.729Z,95826.41
2019-01-25T05:04:38.016Z,95831.37
2019-01-25T05:05:41.380Z,95833.80
2019-01-25T05:06:44.739Z,95832.87
2019-01-25T05:07:48.025Z,95833.92
2019-01-25T05:08:51.722Z,95840.83
2019-01-25T05:09:55.003Z,95833.48
2019-01-25T05:10:58.295Z,95828.95
2019-01-25T05:12:01.658Z,95826.40
2019-01-25T05:13:05.084Z,95819.53
2019-01-25T05:14:08.479Z,95819.77
2019-01-25T05:15:11.840Z,95827.66
2019-01-25T05:16:15.233Z,95822.11
2019-01-25T05:17:18.512Z,95830.07
2019-01-25T05:18:21.795Z,95833.44
2019-01-25T05:19:25.109Z,95835.52
2019-01-25T05:20:28.414Z,95830.45
2019-01-25T05:21:31.697Z,95833.55
2019-01-25T05:22:35.128Z,95832.39
2019-01-25T05:23:38.434Z,95830.14
2019-01-25T05:24:41.748Z,95831.87
2019-01-25T05:25:45.451Z,95844.05
2019-01-25T05:26:48.751Z,95843.64
2019-01-25T05:27:52.513Z,95839.41
2019-01-25T05:28:55.967Z,95838.14
2019-01-25T05:29:59.717Z,95835.76
2019-01-25T05:31:03.005Z,95835.52
2019-01-25T05:32:06.298Z,95831.14
2019-01-25T05:33:09.659Z,95830.90
2019-01-25T05:34:12.942Z,95827.48
2019-01-25T05:35:16.331Z,95823.20
2019-01-25T05:36:19.618Z,95831.86
2019-01-25T05:37:22.973Z,95830.39
2019-01-25T05:38:26.733Z,95829.48
2019-01-25T05:39:30.053Z,95831.02
2019-01-25T05:40:33.371Z,95828.47
2019-01-25T05:41:36.663Z,95823.41
2019-01-25T05:42:39.987Z,95821.36
2019-01-25T05:43:43.268Z,95830.34
2019-01-25T05:44:46.566Z,95833.53
2019-01-25T05:45:49.894Z,95828.23
2019-01-25T05:46:53.251Z,95828.32
2019-01-25T05:47:56.623Z,95827.62
2019-01-25T05:49:00.078Z,95821.67
2019-01-25T05:50:03.409Z,95823.69
2019-01-25T05:51:07.133Z,95823.08
2019-01-25T05:52:15.634Z,95822.98
2019-01-25T05:53:19.124Z,95831.11
2019-01-25T05:54:22.383Z,95827.82
2019-01-25T05:55:25.687Z,95830.31
2019-01-25T05:56:29.416Z,95819.77
2019-01-25T05:57:32.709Z,95828.89
2019-01-25T05:58:36.010Z,95822.83
2019-01-25T05:59:39.361Z,95823.16
2019-01-25T06:00:45.896Z,95818.86
2019-01-25T06:01:49.236Z,95818.22
2019-01-25T06:02:52.524Z,95821.28
2019-01-25T06:03:56.153Z,95817.22
2019-01-25T06:04:59.445Z,95815.45
2019-01-25T06:06:02.803Z,95817.70
2019-01-25T06:07:06.193Z,95821.59
2019-01-25T06:08:30.760Z,95819.18
2019-01-25T06:09:34.039Z,95818.70
2019-01-25T06:10:37.344Z,95809.11
2019-01-25T06:11:40.949Z,95815.91
2019-01-25T06:12:44.663Z,95817.30
2019-01-25T06:13:48.007Z,95819.10
2019-01-25T06:14:51.357Z,95825.25
2019-01-25T06:15:54.644Z,95830.41
2019-01-25T06:16:57.928Z,95828.14
2019-01-25T06:18:02.813Z,95833.45
2019-01-25T06:19:06.120Z,95831.88
2019-01-25T06:20:11.351Z,95835.86
2019-01-25T06:21:14.652Z,95836.73
2019-01-25T06:22:17.927Z,95836.58
2019-01-25T06:23:21.319Z,95835.25
2019-01-25T06:24:24.679Z,95831.17
2019-01-25T06:25:27.970Z,95819.70
2019-01-25T06:26:31.332Z,95823.03
2019-01-25T06:27:37.123Z,95817.59
2019-01-25T06:28:40.412Z,95825.76
2019-01-25T06:29:43.699Z,95821.61
2019-01-25T06:30:47.100Z,95824.09
2019-01-25T06:31:50.400Z,95810.84
2019-01-25T06:32:53.689Z,95814.53
2019-01-25T06:33:57.008Z,95813.99
2019-01-25T06:35:00.296Z,95807.36
2019-01-25T06:36:03.762Z,95808.59
2019-01-25T06:37:07.050Z,95806.95
2019-01-25T06:38:10.337Z,95802.43
2019-01-25T06:39:13.670Z,95805.91
2019-01-25T06:40:17.005Z,95798.89
2019-01-25T06:41:20.305Z,95800.80
2019-01-25T06:42:23.601Z,95801.74
2019-01-25T06:43:26.902Z,95808.81
2019-01-25T06:44:30.363Z,95815.17
2019-01-25T06:45:33.653Z,95816.61
2019-01-25T06:46:36.944Z,95817.88
2019-01-25T06:47:40.228Z,95817.25
2019-01-25T06:48:43.598Z,95810.63
2019-01-25T06:49:46.890Z,95794.28
2019-01-25T06:50:50.193Z,95794.05
2019-01-25T06:51:53.553Z,95792.41
2019-01-25T06:52:57.345Z,95792.34
2019-01-25T06:54:00.631Z,95791.02
2019-01-25T06:55:04.829Z,95793.50
2019-01-25T06:56:08.121Z,95790.36
2019-01-25T06:57:13.068Z,95790.78
2019-01-25T06:58:20.883Z,95786.27
2019-01-25T06:59:24.173Z,95784.16
2019-01-25T07:00:29.151Z,95782.75
2019-01-25T07:01:39.946Z,95777.95
2019-01-25T07:02:43.234Z,95774.91
2019-01-25T07:03:46.525Z,95769.55
2019-01-25T07:04:49.903Z,95770.75
2019-01-25T07:05:53.378Z,95769.49
2019-01-25T07:06:56.661Z,95767.56
2019-01-25T07:07:59.973Z,95770.69
2019-01-25T07:09:03.405Z,95771.37
2019-01-25T07:10:09.960Z,95774.94
2019-01-25T07:11:13.289Z,95768.84
2019-01-25T07:12:16.580Z,95768.41
2019-01-25T07:13:19.881Z,95772.28
2019-01-25T07:14:23.172Z,95769.63
2019-01-25T07:15:26.461Z,95776.42
2019-01-25T07:16:29.809Z,95774.62
2019-01-25T07:17:33.082Z,95768.30
2019-01-25T07:18:36.376Z,95771.13
2019-01-25T07:19:39.749Z,95773.52
2019-01-25T07:20:43.134Z,95776.62
2019-01-25T07:21:46.529Z,95778.91
2019-01-25T07:22:50.219Z,95773.61
2019-01-25T07:23:53.509Z,95775.17
2019-01-25T07:24:57.245Z,95773.06
2019-01-25T07:26:00.772Z,95773.41
2019-01-25T07:27:04.488Z,95773.77
2019-01-25T07:28:07.784Z,95773.17
2019-01-25T07:29:11.105Z,95770.73
2019-01-25T07:30:16.521Z,95770.69
2019-01-25T07:31:19.809Z,95769.23
2019-01-25T07:32:23.125Z,95769.73
2019-01-25T07:33:26.542Z,95769.36
2019-01-25T07:34:29.837Z,95774.91
2019-01-25T07:35:33.116Z,95770.22
2019-01-25T07:36:36.715Z,95770.87
2019-01-25T07:37:40.033Z,95776.84
2019-01-25T07:38:43.314Z,95786.34
2019-01-25T07:39:46.676Z,95781.02
2019-01-25T07:40:50.100Z,95787.90
2019-01-25T07:41:59.175Z,95788.67
2019-01-25T07:42:58.450Z,95782.30
2019-01-25T07:44:01.737Z,95777.87
2019-01-25T07:45:10.943Z,95774.85
2019-01-25T07:46:14.284Z,95777.52
2019-01-25T07:47:17.577Z,95785.16
2019-01-25T07:48:20.898Z,95787.90
2019-01-25T07:49:24.301Z,95777.46
2019-01-25T07:50:27.749Z,95785.11
2019-01-25T07:51:31.098Z,95777.38
2019-01-25T07:52:34.440Z,95774.19
2019-01-25T07:53:37.871Z,95767.12
2019-01-25T07:54:41.160Z,95770.20
2019-01-25T07:55:44.521Z,95775.28
2019-01-25T07:56:47.814Z,95783.36
2019-01-25T07:57:51.130Z,95782.80
2019-01-25T07:58:54.488Z,95781.94
2019-01-25T07:59:57.804Z,95782.31
2019-01-25T08:01:01.115Z,95778.23
2019-01-25T08:02:04.523Z,95777.28
2019-01-25T08:03:07.842Z,95775.09
2019-01-25T08:04:11.148Z,95774.00
2019-01-25T08:05:14.507Z,95774.08
2019-01-25T08:06:17.806Z,95782.59
2019-01-25T08:07:21.097Z,95775.45
2019-01-25T08:08:24.393Z,95768.82
2019-01-25T08:09:28.040Z,95773.41
2019-01-25T08:10:33.121Z,95768.77
2019-01-25T08:11:36.601Z,95768.27
2019-01-25T08:12:40.269Z,95768.53
2019-01-25T08:13:43.559Z,95771.06
2019-01-25T08:14:46.868Z,95774.00
2019-01-25T08:15:50.322Z,95773.16
2019-01-25T08:16:53.667Z,95776.86
2019-01-25T08:17:56.939Z,95774.19
2019-01-25T08:19:00.249Z,95771.60
2019-01-25T08:20:04.916Z,95782.33
2019-01-25T08:21:08.276Z,95781.41
2019-01-25T08:22:11.825Z,95789.39
2019-01-25T08:23:15.110Z,95790.72
2019-01-25T08:24:18.444Z,95789.19
2019-01-25T08:25:22.195Z,95792.47
2019-01-25T08:26:25.477Z,95795.97
2019-01-25T08:27:28.765Z,95797.80
2019-01-25T08:28:32.073Z,95801.72
2019-01-25T08:29:35.344Z,95811.25
2019-01-25T08:30:38.737Z,95810.63
2019-01-25T08:31:42.008Z,95802.61
2019-01-25T08:32:45.310Z,95806.77
2019-01-25T08:33:48.597Z,95809.14
2019-01-25T08:34:51.883Z,95815.94
2019-01-25T08:35:55.230Z,95816.80
2019-01-25T08:36:58.495Z,95823.67
2019-01-25T08:38:01.789Z,95827.66
2019-01-25T08:39:07.672Z,95817.66
2019-01-25T08:40:13.357Z,95807.50
2019-01-25T08:41:16.782Z,95806.89
2019-01-25T08:42:20.120Z,95794.03
2019-01-25T08:43:23.426Z,95786.06
2019-01-25T08:44:27.139Z,95782.94
2019-01-25T08:45:30.773Z,95778.22
2019-01-25T08:46:34.106Z,95771.69
2019-01-25T08:47:37.461Z,95771.31
2019-01-25T08:48:40.793Z,95782.92
2019-01-25T08:49:44.510Z,95784.61
2019-01-25T08:50:48.169Z,95795.12
2019-01-25T08:51:51.487Z,95783.71
2019-01-25T08:52:54.749Z,95779.77
2019-01-25T08:53:58.081Z,95774.41
2019-01-25T08:55:01.353Z,95770.25
2019-01-25T08:56:04.817Z,95769.03
2019-01-25T08:57:08.177Z,95769.47
2019-01-25T08:58:14.150Z,95777.91
2019-01-25T08:59:17.447Z,95775.06
2019-01-25T09:00:26.256Z,95781.24
2019-01-25T09:01:29.547Z,95776.90
2019-01-25T09:02:32.867Z,95772.41
2019-01-25T09:03:36.155Z,95776.58
2019-01-25T09:04:39.434Z,95779.91
2019-01-25T09:05:42.714Z,95783.63
2019-01-25T09:06:45.992Z,95783.08
2019-01-25T09:07:49.388Z,95778.19
2019-01-25T09:08:52.669Z,95783.63
2019-01-25T09:09:55.960Z,95779.72
2019-01-25T09:10:59.380Z,95786.23
2019-01-25T09:12:02.670Z,95795.22
2019-01-25T09:13:06.009Z,95786.47
2019-01-25T09:14:09.295Z,95785.69
2019-01-25T09:15:22.673Z,95779.77
2019-01-25T09:16:29.096Z,95780.27
2019-01-25T09:17:32.452Z,95770.81
2019-01-25T09:18:35.760Z,95771.95
2019-01-25T09:19:39.089Z,95773.13
2019-01-25T09:20:42.377Z,95772.03
2019-01-25T09:21:45.668Z,95769.09
2019-01-25T09:22:49.009Z,95761.12
2019-01-25T09:23:52.336Z,95756.66
2019-01-25T09:24:55.690Z,95762.64
2019-01-25T09:26:01.015Z,95757.06
2019-01-25T09:27:04.116Z,95761.01
2019-01-25T09:28:07.424Z,95754.79
2019-01-25T09:29:10.836Z,95755.50
2019-01-25T09:30:16.699Z,95751.62
2019-01-25T09:31:19.979Z,95749.20
2019-01-25T09:32:23.281Z,95750.30
2019-01-25T09:33:26.623Z,95746.55
2019-01-25T09:34:29.976Z,95743.80
2019-01-25T09:35:33.258Z,95736.03
2019-01-25T09:36:36.541Z,95734.23
2019-01-25T09:37:39.827Z,95742.02
2019-01-25T09:38:43.110Z,95736.11
2019-01-25T09:39:46.434Z,95742.02
2019-01-25T09:40:49.721Z,95742.33
2019-01-25T09:41:52.997Z,95734.27
2019-01-25T09:42:56.286Z,95726.95
2019-01-25T09:43:59.632Z,95723.72
2019-01-25T09:45:03.029Z,95725.48
2019-01-25T09:46:06.307Z,95729.03
2019-01-25T09:47:09.663Z,95729.34
2019-01-25T09:48:12.945Z,95731.73
2019-01-25T09:49:16.234Z,95725.00
2019-01-25T09:50:23.450Z,95720.55
2019-01-25T09:51:26.745Z,95727.19
2019-01-25T09:52:30.023Z,95722.11
2019-01-25T09:53:33.303Z,95718.09
2019-01-25T09:54:36.666Z,95708.93
2019-01-25T09:55:39.975Z,95710.84
2019-01-25T09:56:43.262Z,95711.16
2019-01-25T09:57:46.610Z,95712.25
2019-01-25T09:58:49.959Z,95711.02
2019-01-25T09:59:53.248Z,95702.95
2019-01-25T10:01:00.096Z,95696.77
2019-01-25T10:02:03.383Z,95696.21
2019-01-25T10:03:06.681Z,95694.45
2019-01-25T10:04:09.972Z,95697.34
2019-01-25T10:05:13.257Z,95699.77
2019-01-25T10:06:16.625Z,95692.92
2019-01-25T10:07:19.908Z,95695.11
2019-01-25T10:08:23.210Z,95690.98
2019-01-25T10:09:26.488Z,95685.53
2019-01-25T10:10:29.789Z,95686.63
2019-01-25T10:11:33.149Z,95684.94
2019-01-25T10:12:43.259Z,95690.45
2019-01-25T10:13:41.517Z,95688.21
2019-01-25T10:14:44.828Z,95690.88
2019-01-25T10:15:48.123Z,95696.83
2019-01-25T10:16:51.412Z,95690.18
2019-01-25T10:17:54.876Z,95683.50
2019-01-25T10:18:58.164Z,95684.98
2019-01-25T10:20:01.444Z,95684.23
2019-01-25T10:21:04.796Z,95680.24
2019-01-25T10:22:08.806Z,95682.67
2019-01-25T10:23:12.173Z,95680.78
2019-01-25T10:24:15.462Z,95678.13
2019-01-25T10:25:19.113Z,95678.70
2019-01-25T10:26:22.397Z,95678.91
2019-01-25T10:27:25.838Z,95674.00
2019-01-25T10:28:29.161Z,95679.55
2019-01-25T10:29:32.513Z,95677.88
2019-01-25T10:30:36.147Z,95678.69
2019-01-25T10:31:39.513Z,95681.13
2019-01-25T10:32:42.798Z,95684.00
2019-01-25T10:33:46.111Z,95684.78
2019-01-25T10:34:49.387Z,95684.31
2019-01-25T10:35:52.670Z,95690.88
2019-01-25T10:36:55.952Z,95692.61
2019-01-25T10:37:59.542Z,95693.27
2019-01-25T10:39:04.722Z,95688.39
2019-01-25T10:40:13.611Z,95688.63
2019-01-25T10:41:16.894Z,95679.63
2019-01-25T10:42:20.175Z,95678.19
2019-01-25T10:43:23.484Z,95671.34
2019-01-25T10:44:26.804Z,95678.02
2019-01-25T10:45:39.100Z,95665.82
2019-01-25T10:46:42.453Z,95665.63
2019-01-25T10:47:45.746Z,95663.80
2019-01-25T10:48:49.024Z,95668.25
2019-01-25T10:49:52.340Z,95662.16
2019-01-25T10:50:55.626Z,95658.26
2019-01-25T10:51:58.927Z,95656.03
2019-01-25T10:53:02.210Z,95647.72
2019-01-25T10:54:05.667Z,95637.84
2019-01-25T10:55:11.054Z,95637.20
2019-01-25T10:56:14.343Z,95632.98
2019-01-25T10:57:17.630Z,95628.34
2019-01-25T10:58:20.903Z,95635.09
2019-01-25T10:59:24.265Z,95638.73
2019-01-25T11:00:27.927Z,95634.31
2019-01-25T11:01:31.220Z,95636.08
2019-01-25T11:02:34.576Z,95637.64
2019-01-25T11:03:37.875Z,95630.36
2019-01-25T11:04:41.171Z,95632.90
2019-01-25T11:05:44.513Z,95629.44
2019-01-25T11:06:47.869Z,95620.48
2019-01-25T11:07:51.171Z,95626.14
2019-01-25T11:08:54.479Z,95625.95
2019-01-25T11:09:57.813Z,95628.81
2019-01-25T11:11:01.175Z,95633.02
2019-01-25T11:12:04.474Z,95635.21
2019-01-25T11:13:07.772Z,95641.88
2019-01-25T11:14:11.061Z,95640.58
2019-01-25T11:15:19.793Z,95636.58
2019-01-25T11:16:23.125Z,95643.45
2019-01-25T11:17:26.530Z,95648.55
2019-01-25T11:18:29.895Z,95660.50
2019-01-25T11:19:33.184Z,95665.97
2019-01-25T11:20:36.485Z,95665.09
2019-01-25T11:21:39.826Z,95656.77
2019-01-25T11:22:43.705Z,95660.99
2019-01-25T11:23:47.004Z,95658.56
2019-01-25T11:24:50.360Z,95661.86
2019-01-25T11:25:55.277Z,95658.33
2019-01-25T11:27:00.413Z,95658.10
2019-01-25T11:28:03.771Z,95645.69
2019-01-25T11:29:07.057Z,95648.98
2019-01-25T11:30:13.591Z,95645.98
2019-01-25T11:31:16.940Z,95647.98
2019-01-25T11:32:20.263Z,95648.75
2019-01-25T11:33:23.548Z,95653.87
2019-01-25T11:34:26.936Z,95650.98
2019-01-25T11:35:30.219Z,95647.42
2019-01-25T11:36:33.503Z,95657.83
2019-01-25T11:37:36.808Z,95662.91
2019-01-25T11:38:40.105Z,95651.41
2019-01-25T11:39:43.453Z,95659.18
2019-01-25T11:40:46.738Z,95652.53
2019-01-25T11:41:50.017Z,95650.06
2019-01-25T11:42:53.756Z,95650.81
2019-01-25T11:43:57.168Z,95647.14
2019-01-25T11:45:00.458Z,95647.80
2019-01-25T11:46:03.843Z,95646.70
2019-01-25T11:47:07.106Z,95638.94
2019-01-25T11:48:12.423Z,95629.32
2019-01-25T11:49:15.739Z,95636.83
2019-01-25T11:50:20.566Z,95632.27
2019-01-25T11:51:23.850Z,95640.70
2019-01-25T11:52:27.144Z,95636.72
2019-01-25T11:53:30.429Z,95634.09
2019-01-25T11:54:33.739Z,95627.22
2019-01-25T11:55:37.092Z,95629.88
2019-01-25T11:56:40.380Z,95630.10
2019-01-25T11:57:43.750Z,95623.00
2019-01-25T11:58:47.104Z,95624.44
2019-01-25T11:59:50.427Z,95627.22
2019-01-25T12:00:54.202Z,95615.46
2019-01-25T12:01:57.586Z,95621.00
2019-01-25T12:03:00.827Z,95617.02
2019-01-25T12:04:06.118Z,95614.83
2019-01-25T12:05:11.985Z,95615.72
2019-01-25T12:06:15.345Z,95617.20
2019-01-25T12:07:18.704Z,95616.86
2019-01-25T12:08:22.245Z,95616.41
2019-01-25T12:09:25.600Z,95617.82
2019-01-25T12:10:33.309Z,95617.50
2019-01-25T12:11:36.595Z,95618.26
2019-01-25T12:12:39.873Z,95617.80
2019-01-25T12:13:43.239Z,95621.67
2019-01-25T12:14:46.517Z,95622.02
2019-01-25T12:15:51.431Z,95616.79
2019-01-25T12:16:54.895Z,95610.81
2019-01-25T12:17:58.248Z,95616.13
2019-01-25T12:19:01.597Z,95609.57
2019-01-25T12:20:08.164Z,95608.38
2019-01-25T12:21:11.500Z,95608.54
2019-01-25T12:22:14.787Z,95608.34
2019-01-25T12:23:18.230Z,95610.56
2019-01-25T12:24:21.864Z,95611.75
2019-01-25T12:25:25.174Z,95616.63
2019-01-25T12:26:28.841Z,95616.15
2019-01-25T12:27:32.170Z,95609.59
2019-01-25T12:28:35.458Z,95603.94
2019-01-25T12:29:38.743Z,95610.23
2019-01-25T12:30:42.027Z,95606.80
2019-01-25T12:31:46.244Z,95609.80
2019-01-25T12:32:49.543Z,95607.92